Time;durP1;ratioP1;P1;durP2;ratioP2;P2;SDS_P1;SDS_P2;PMS_P1;PMS_P2;Temp;Humidity;BMP_temperature;BMP_pressure;BME280_temperature;BME280_humidity;BME280_pressure;Samples;Min_cycle;Max_cycle;Signal;HPM_P1;HPM_P2
2023/10/26 00:00:51;;;;;;;12.40;9.30;;;23.70;70.90;;;;;;221955;1265;22526;-57
2023/10/26 00:06:11;;;;;;;14.10;9.60;;;23.70;70.90;;;;;;221624;1265;23603;-55
2023/10/26 00:11:15;;;;;;;14.10;9.80;;;23.80;70.30;;;;;;222020;1265;23955;-58
2023/10/26 00:16:20;;;;;;;13.50;9.20;;;23.70;70.20;;;;;;221650;1268;24407;-58
2023/10/26 00:21:24;;;;;;;12.10;9.20;;;23.70;70.40;;;;;;222185;1267;25372;-58
2023/10/26 00:26:32;;;;;;;10.40;9.30;;;23.60;70.50;;;;;;222041;1268;25339;-58
2023/10/26 00:31:36;;;;;;;11.50;8.70;;;23.60;70.50;;;;;;221885;1267;22530;-57
2023/10/26 00:36:40;;;;;;;10.30;8.90;;;23.50;71.20;;;;;;222079;1267;22889;-58
2023/10/26 00:41:44;;;;;;;11.90;9.70;;;23.40;70.90;;;;;;221997;1265;25329;-58
2023/10/26 00:46:51;;;;;;;9.90;8.90;;;23.40;71.40;;;;;;221769;1271;22511;-57
2023/10/26 00:51:59;;;;;;;11.80;9.40;;;23.30;71.40;;;;;;221875;1262;22626;-58
2023/10/26 00:57:04;;;;;;;11.30;9.00;;;23.40;70.70;;;;;;222083;1264;22521;-57
2023/10/26 01:02:08;;;;;;;14.70;9.40;;;23.40;71.00;;;;;;221694;1270;24207;-57
2023/10/26 01:07:15;;;;;;;8.70;7.70;;;23.30;71.20;;;;;;221744;1254;25429;-56
2023/10/26 01:12:20;;;;;;;10.90;9.20;;;23.30;71.40;;;;;;229757;1262;22142;-58
2023/10/26 01:17:24;;;;;;;11.40;8.40;;;23.40;71.00;;;;;;221655;1258;25448;-57
2023/10/26 01:22:29;;;;;;;9.40;8.20;;;23.30;71.50;;;;;;222731;1268;22538;-56
2023/10/26 01:27:33;;;;;;;10.20;9.00;;;23.40;71.90;;;;;;221874;1265;25332;-58
2023/10/26 01:32:38;;;;;;;8.70;7.90;;;23.30;71.80;;;;;;222293;1265;24222;-58
2023/10/26 01:37:42;;;;;;;8.90;7.80;;;23.30;71.90;;;;;;221927;1257;22670;-57
2023/10/26 01:42:47;;;;;;;10.50;7.90;;;23.20;71.90;;;;;;221773;1257;22767;-58
2023/10/26 01:47:57;;;;;;;12.60;8.80;;;23.30;72.10;;;;;;221832;1265;24967;-56
2023/10/26 01:53:12;;;;;;;9.50;7.90;;;23.20;72.10;;;;;;222110;1263;23983;-57
2023/10/26 01:58:16;;;;;;;13.50;8.80;;;23.10;72.30;;;;;;221839;1270;24238;-58
2023/10/26 02:03:20;;;;;;;8.80;7.90;;;23.00;72.20;;;;;;221858;1256;22668;-57
2023/10/26 02:08:25;;;;;;;10.90;8.20;;;23.00;72.20;;;;;;221936;1250;24235;-58
2023/10/26 02:13:29;;;;;;;10.10;8.10;;;23.00;71.50;;;;;;221864;1264;22870;-56
2023/10/26 02:18:33;;;;;;;9.50;7.10;;;22.90;72.30;;;;;;222064;1268;22626;-57
2023/10/26 02:23:41;;;;;;;8.70;7.50;;;22.90;72.60;;;;;;222108;1269;22611;-58
2023/10/26 02:28:53;;;;;;;8.20;7.40;;;22.90;72.00;;;;;;222147;1268;22543;-58
2023/10/26 02:34:00;;;;;;;8.30;7.20;;;22.90;71.70;;;;;;221829;1271;22517;-58
2023/10/26 02:39:05;;;;;;;11.40;8.30;;;22.80;72.00;;;;;;221697;1268;22518;-58
2023/10/26 02:44:10;;;;;;;9.80;8.30;;;22.80;72.20;;;;;;221831;1264;22636;-58
2023/10/26 02:49:14;;;;;;;9.40;8.10;;;22.70;72.00;;;;;;221995;1259;22568;-59
2023/10/26 02:54:22;;;;;;;8.30;7.40;;;22.70;72.40;;;;;;221844;1259;24270;-58
2023/10/26 02:59:26;;;;;;;8.20;7.20;;;22.70;72.00;;;;;;221689;1266;24352;-57
2023/10/26 03:04:31;;;;;;;8.60;7.30;;;22.70;72.00;;;;;;221770;1264;22729;-58
2023/10/26 03:09:35;;;;;;;8.50;7.70;;;22.70;72.20;;;;;;225826;1263;22920;-57
2023/10/26 03:14:39;;;;;;;8.70;6.90;;;22.70;72.10;;;;;;222851;1264;24255;-55
2023/10/26 03:19:44;;;;;;;8.30;7.50;;;22.70;71.50;;;;;;221963;1265;24055;-56
2023/10/26 03:24:50;;;;;;;7.50;6.90;;;22.70;71.70;;;;;;222532;1264;22515;-58
2023/10/26 03:29:54;;;;;;;8.40;7.20;;;22.60;72.00;;;;;;221841;1249;22595;-59
2023/10/26 03:34:59;;;;;;;10.30;7.90;;;22.60;72.10;;;;;;221947;1263;22516;-57
2023/10/26 03:40:08;;;;;;;7.60;6.90;;;22.60;72.00;;;;;;222002;1255;24281;-57
2023/10/26 03:45:12;;;;;;;7.80;7.00;;;22.60;72.00;;;;;;221862;1264;24195;-59
2023/10/26 03:50:16;;;;;;;7.50;6.80;;;22.50;71.90;;;;;;221550;1265;23158;-58
2023/10/26 03:55:21;;;;;;;7.60;6.80;;;22.50;71.90;;;;;;221718;1271;22564;-58
2023/10/26 04:00:27;;;;;;;7.60;6.90;;;22.70;72.10;;;;;;221620;1267;24252;-58
2023/10/26 04:05:40;;;;;;;6.10;5.60;;;23.00;71.40;;;;;;221609;1263;22511;-57
2023/10/26 04:10:44;;;;;;;6.90;6.20;;;23.30;70.40;;;;;;221809;1268;24223;-58
2023/10/26 04:15:58;;;;;;;7.30;6.20;;;23.50;69.10;;;;;;221828;1267;25541;-57
2023/10/26 04:21:04;;;;;;;7.90;6.80;;;23.70;68.60;;;;;;222085;1258;22527;-59
2023/10/26 04:26:12;;;;;;;7.80;6.30;;;23.70;68.70;;;;;;221857;1258;24226;-58
2023/10/26 04:31:17;;;;;;;7.80;6.80;;;23.80;68.30;;;;;;222088;1270;22520;-58
2023/10/26 04:36:21;;;;;;;8.30;6.30;;;23.70;69.00;;;;;;222165;1263;22533;-58
2023/10/26 04:41:26;;;;;;;14.60;7.60;;;23.90;68.40;;;;;;221895;1264;25369;-56
2023/10/26 04:46:30;;;;;;;10.30;6.90;;;23.90;68.30;;;;;;222641;1264;22576;-57
2023/10/26 04:51:34;;;;;;;6.40;5.80;;;23.90;68.40;;;;;;222292;1271;22575;-58
2023/10/26 04:56:38;;;;;;;18.80;8.50;;;24.00;67.80;;;;;;221917;1265;22514;-57
2023/10/26 05:01:42;;;;;;;8.30;5.70;;;24.00;67.80;;;;;;227266;1270;22516;-57
2023/10/26 05:06:47;;;;;;;7.20;6.40;;;24.00;67.70;;;;;;221720;1263;25476;-57
2023/10/26 05:11:52;;;;;;;6.50;5.60;;;23.90;67.80;;;;;;221716;1260;22537;-58
2023/10/26 05:16:56;;;;;;;11.90;6.50;;;23.80;68.00;;;;;;221557;1257;22518;-59
2023/10/26 05:22:01;;;;;;;6.80;6.10;;;23.80;68.00;;;;;;221877;1259;24244;-58
2023/10/26 05:27:06;;;;;;;6.30;5.70;;;23.80;68.50;;;;;;221874;1271;25682;-60
2023/10/26 05:32:10;;;;;;;6.50;5.80;;;23.70;68.30;;;;;;221712;1265;25261;-57
2023/10/26 05:37:14;;;;;;;8.60;5.90;;;23.70;69.00;;;;;;221723;1271;22789;-58
2023/10/26 05:42:19;;;;;;;7.60;5.50;;;23.60;68.80;;;;;;221979;1268;25231;-57
2023/10/26 05:47:24;;;;;;;8.40;6.10;;;23.40;69.00;;;;;;221959;1268;25321;-56
2023/10/26 05:52:28;;;;;;;7.70;5.90;;;23.40;69.60;;;;;;221839;1267;22531;-57
2023/10/26 05:57:34;;;;;;;7.70;5.60;;;23.40;70.90;;;;;;222138;1267;22518;-57
2023/10/26 06:02:45;;;;;;;7.00;6.20;;;23.40;70.90;;;;;;222022;1257;22573;-58
2023/10/26 06:08:00;;;;;;;9.10;5.90;;;23.50;71.60;;;;;;222040;1257;24383;-58
2023/10/26 06:13:13;;;;;;;10.00;5.80;;;23.40;70.80;;;;;;221703;1271;22539;-57
2023/10/26 06:18:25;;;;;;;7.90;6.00;;;23.50;71.10;;;;;;221744;1271;22515;-59
2023/10/26 06:23:39;;;;;;;7.30;6.10;;;23.40;70.50;;;;;;222040;1269;22712;-58
2023/10/26 06:28:53;;;;;;;11.20;6.30;;;23.40;70.40;;;;;;222050;1268;22517;-57
2023/10/26 06:34:07;;;;;;;9.70;5.80;;;23.40;70.90;;;;;;221798;1264;22529;-57
2023/10/26 06:39:21;;;;;;;9.90;6.30;;;23.40;70.70;;;;;;222219;1270;22523;-56
2023/10/26 06:44:33;;;;;;;10.30;6.70;;;23.30;70.80;;;;;;221620;1271;22640;-56
2023/10/26 06:49:38;;;;;;;6.90;5.70;;;23.20;70.40;;;;;;223192;1264;22814;-58
2023/10/26 06:54:47;;;;;;;7.90;5.90;;;23.20;69.90;;;;;;221743;1268;24358;-57
2023/10/26 06:59:51;;;;;;;9.20;6.10;;;23.20;69.80;;;;;;222363;1270;24225;-58
2023/10/26 07:04:55;;;;;;;8.70;5.80;;;23.10;69.70;;;;;;222043;1255;23819;-59
2023/10/26 07:10:01;;;;;;;6.40;5.10;;;23.10;69.70;;;;;;221854;1264;25498;-57
2023/10/26 07:15:10;;;;;;;5.20;4.80;;;23.10;69.80;;;;;;221830;1267;22646;-58
2023/10/26 07:20:14;;;;;;;7.30;5.50;;;23.00;70.00;;;;;;221886;1269;25491;-58
2023/10/26 07:25:22;;;;;;;8.00;5.70;;;23.00;70.20;;;;;;221725;1258;22932;-57
2023/10/26 07:30:26;;;;;;;6.80;5.00;;;22.90;70.10;;;;;;221660;1271;22518;-58
2023/10/26 07:35:42;;;;;;;6.10;5.00;;;22.90;70.00;;;;;;221917;1267;22530;-57
2023/10/26 07:40:52;;;;;;;6.30;4.80;;;22.90;70.20;;;;;;221980;1257;22567;-57
2023/10/26 07:45:56;;;;;;;7.00;4.80;;;22.90;69.80;;;;;;222255;1264;24397;-56
2023/10/26 07:51:00;;;;;;;7.00;5.30;;;22.90;70.20;;;;;;221885;1266;22539;-57
2023/10/26 07:56:05;;;;;;;7.60;5.50;;;22.80;70.10;;;;;;221866;1267;24239;-58
2023/10/26 08:01:10;;;;;;;4.90;4.50;;;22.70;69.70;;;;;;221850;1264;23763;-63
2023/10/26 08:06:17;;;;;;;8.30;5.10;;;22.70;70.40;;;;;;221739;1261;22530;-66
2023/10/26 08:11:23;;;;;;;5.60;5.10;;;22.70;70.90;;;;;;221744;1248;22597;-66
2023/10/26 08:16:27;;;;;;;5.60;5.00;;;22.70;70.50;;;;;;221501;1267;236383;-66
2023/10/26 08:21:46;;;;;;;4.60;4.30;;;22.70;70.50;;;;;;221396;1264;24231;-65
2023/10/26 08:26:51;;;;;;;5.30;4.40;;;22.60;70.40;;;;;;222078;1260;22973;-66
2023/10/26 08:31:56;;;;;;;8.70;4.80;;;22.60;70.40;;;;;;222031;1263;22607;-64
2023/10/26 08:37:01;;;;;;;10.10;5.50;;;22.60;70.60;;;;;;221612;1271;22613;-65
2023/10/26 08:42:17;;;;;;;5.70;4.20;;;22.60;70.60;;;;;;221434;1271;25417;-67
2023/10/26 08:47:26;;;;;;;6.60;4.70;;;22.50;70.60;;;;;;221840;1259;24203;-65
2023/10/26 08:52:30;;;;;;;6.30;4.80;;;22.60;70.30;;;;;;221774;1267;22535;-65
2023/10/26 08:57:48;;;;;;;4.70;4.20;;;22.50;70.50;;;;;;221585;1264;22867;-64
2023/10/26 09:02:52;;;;;;;6.60;4.50;;;22.70;70.20;;;;;;221730;1263;22534;-65
2023/10/26 09:07:56;;;;;;;4.70;4.20;;;22.90;69.40;;;;;;221561;1270;24366;-56
2023/10/26 09:13:06;;;;;;;4.60;4.00;;;23.20;68.70;;;;;;221452;1264;22515;-56
2023/10/26 09:18:10;;;;;;;4.60;4.20;;;23.30;68.40;;;;;;221868;1267;25622;-56
2023/10/26 09:23:28;;;;;;;4.00;3.60;;;23.40;68.30;;;;;;221922;1263;22540;-56
2023/10/26 09:28:49;;;;;;;6.10;4.70;;;23.50;68.30;;;;;;221528;1263;22660;-56
2023/10/26 09:33:54;;;;;;;5.70;4.60;;;23.60;68.10;;;;;;221364;1264;24274;-56
2023/10/26 09:38:58;;;;;;;4.30;3.90;;;23.60;68.00;;;;;;221889;1264;22563;-56
2023/10/26 09:44:02;;;;;;;5.40;4.20;;;23.60;68.20;;;;;;221652;1262;25553;-56
2023/10/26 09:49:07;;;;;;;4.10;3.80;;;23.60;68.10;;;;;;221998;1268;22530;-57
2023/10/26 09:54:13;;;;;;;4.10;3.50;;;23.60;68.50;;;;;;221488;1264;22513;-56
2023/10/26 09:59:18;;;;;;;4.30;3.90;;;23.60;68.30;;;;;;221723;1268;22646;-57
2023/10/26 10:04:37;;;;;;;5.90;3.50;;;23.60;68.30;;;;;;221978;1256;24208;-56
2023/10/26 10:10:12;;;;;;;6.30;3.60;;;23.50;68.20;;;;;;221953;1267;24743;-55
2023/10/26 10:15:17;;;;;;;6.10;3.60;;;23.50;68.70;;;;;;221173;1273;22598;-55
2023/10/26 10:20:42;;;;;;;8.40;3.70;;;23.40;69.30;;;;;;221003;1273;22759;-54
2023/10/26 10:25:48;;;;;;;5.90;4.20;;;23.50;69.60;;;;;;221194;1266;26425;-55
2023/10/26 10:30:57;;;;;;;6.70;4.10;;;23.50;69.40;;;;;;221034;1269;24253;-54
2023/10/26 10:36:04;;;;;;;6.00;3.60;;;23.40;70.00;;;;;;221319;1266;25465;-55
2023/10/26 10:41:09;;;;;;;5.80;3.60;;;23.50;69.90;;;;;;221353;1270;22787;-56
2023/10/26 10:46:26;;;;;;;8.80;3.20;;;23.40;70.40;;;;;;221293;1270;22610;-55
2023/10/26 10:51:37;;;;;;;7.10;4.00;;;23.40;70.70;;;;;;221708;1266;25274;-54
2023/10/26 10:56:48;;;;;;;3.70;3.20;;;23.50;70.20;;;;;;221832;1264;23610;-52
2023/10/26 11:02:09;;;;;;;8.10;3.40;;;23.50;70.20;;;;;;221968;1268;22534;-56
2023/10/26 11:07:14;;;;;;;13.00;3.50;;;23.50;70.40;;;;;;221937;1268;26277;-54
2023/10/26 11:12:18;;;;;;;3.00;2.70;;;23.50;70.60;;;;;;222065;1270;22660;-55
2023/10/26 11:17:26;;;;;;;4.00;3.00;;;23.50;70.20;;;;;;221751;1256;22522;-54
2023/10/26 11:22:31;;;;;;;5.40;3.40;;;23.50;69.50;;;;;;221696;1264;24244;-55
2023/10/26 11:27:44;;;;;;;3.80;2.80;;;23.40;69.50;;;;;;221539;1264;24205;-55
2023/10/26 11:32:48;;;;;;;3.60;3.20;;;23.40;69.70;;;;;;221916;1264;22579;-55
2023/10/26 11:38:03;;;;;;;3.10;2.80;;;23.40;69.50;;;;;;221796;1255;25366;-56
2023/10/26 11:43:07;;;;;;;3.10;2.80;;;23.40;69.50;;;;;;221768;1267;25510;-53
2023/10/26 11:48:11;;;;;;;3.90;3.30;;;23.40;69.50;;;;;;221721;1263;22583;-55
2023/10/26 11:53:15;;;;;;;3.90;2.80;;;23.40;69.50;;;;;;222045;1264;22651;-54
2023/10/26 11:58:20;;;;;;;3.50;2.80;;;23.30;69.60;;;;;;221790;1263;22642;-56
2023/10/26 12:03:25;;;;;;;3.10;2.60;;;23.30;69.70;;;;;;221803;1264;22528;-55
2023/10/26 12:08:30;;;;;;;3.30;2.60;;;23.30;69.60;;;;;;222051;1270;22614;-57
2023/10/26 12:13:36;;;;;;;4.20;3.10;;;23.40;69.90;;;;;;222310;1265;22521;-55
2023/10/26 12:18:40;;;;;;;5.10;2.80;;;23.40;69.30;;;;;;221921;1249;26315;-56
2023/10/26 12:23:44;;;;;;;3.20;2.90;;;23.30;69.20;;;;;;222788;1260;22802;-57
2023/10/26 12:28:48;;;;;;;2.70;2.50;;;23.30;69.20;;;;;;221758;1255;25583;-56
2023/10/26 12:33:53;;;;;;;2.60;2.40;;;23.30;69.20;;;;;;221709;1264;22658;-57
2023/10/26 12:38:57;;;;;;;3.80;2.60;;;23.30;69.00;;;;;;222046;1258;25038;-58
2023/10/26 12:44:05;;;;;;;5.00;3.10;;;23.10;69.60;;;;;;221770;1270;25333;-57
2023/10/26 12:49:08;;;;;;;2.80;2.60;;;23.00;69.80;;;;;;222031;1271;23204;-56
2023/10/26 12:54:13;;;;;;;4.60;3.00;;;23.10;69.50;;;;;;222720;1248;22527;-58
2023/10/26 12:59:18;;;;;;;4.10;2.40;;;23.30;69.30;;;;;;222106;1264;22554;-58
2023/10/26 13:04:22;;;;;;;3.80;2.50;;;23.10;69.60;;;;;;222212;1270;24228;-54
2023/10/26 13:09:26;;;;;;;3.00;2.70;;;23.00;69.70;;;;;;221938;1267;22629;-57
2023/10/26 13:14:32;;;;;;;4.10;2.80;;;23.10;69.30;;;;;;221598;1270;24065;-58
2023/10/26 13:19:36;;;;;;;4.70;3.00;;;23.10;69.20;;;;;;222224;1267;22530;-59
2023/10/26 13:24:42;;;;;;;4.70;2.70;;;23.10;69.80;;;;;;221900;1263;22540;-57
2023/10/26 13:29:47;;;;;;;2.50;2.20;;;23.10;69.30;;;;;;221631;1255;25360;-57
2023/10/26 13:34:51;;;;;;;3.30;2.70;;;23.00;69.40;;;;;;221689;1267;22556;-57
2023/10/26 13:39:55;;;;;;;3.20;2.30;;;23.00;69.50;;;;;;221817;1267;22515;-56
2023/10/26 13:45:00;;;;;;;5.50;2.80;;;23.00;69.40;;;;;;222090;1264;23663;-55
2023/10/26 13:50:05;;;;;;;5.50;2.50;;;22.90;69.60;;;;;;221819;1263;24205;-57
2023/10/26 13:55:09;;;;;;;3.00;2.30;;;22.90;69.60;;;;;;222013;1270;23569;-57
2023/10/26 14:00:15;;;;;;;3.00;2.00;;;22.80;69.60;;;;;;221958;1270;24200;-57
2023/10/26 14:05:19;;;;;;;5.10;2.80;;;22.80;69.70;;;;;;222334;1247;22621;-58
2023/10/26 14:10:26;;;;;;;9.30;2.60;;;22.80;69.80;;;;;;222282;1267;22773;-58
2023/10/26 14:15:30;;;;;;;5.80;2.30;;;22.80;69.30;;;;;;222153;1267;24361;-57
2023/10/26 14:20:35;;;;;;;3.40;2.50;;;22.80;69.20;;;;;;222301;1270;24219;-57
2023/10/26 14:25:41;;;;;;;3.00;2.50;;;22.70;69.60;;;;;;222072;1267;22760;-58
2023/10/26 14:30:47;;;;;;;2.90;1.80;;;22.70;69.60;;;;;;222070;1262;25135;-58
2023/10/26 14:35:51;;;;;;;3.10;2.00;;;22.70;69.60;;;;;;222177;1268;24142;-58
2023/10/26 14:40:57;;;;;;;1.80;1.70;;;22.70;69.50;;;;;;222019;1267;22527;-58
2023/10/26 14:46:01;;;;;;;2.00;1.80;;;22.70;69.40;;;;;;222134;1265;24385;-57
2023/10/26 14:51:09;;;;;;;2.20;2.00;;;22.70;69.40;;;;;;221793;1265;22723;-57
2023/10/26 14:56:13;;;;;;;2.20;2.00;;;22.60;69.30;;;;;;222070;1258;24263;-58
2023/10/26 15:01:18;;;;;;;2.80;2.00;;;22.60;69.20;;;;;;221999;1248;22619;-57
2023/10/26 15:06:26;;;;;;;1.80;1.70;;;22.60;69.30;;;;;;221937;1266;22521;-58
2023/10/26 15:11:36;;;;;;;2.60;2.00;;;22.60;69.20;;;;;;221507;1262;27258;-56
2023/10/26 15:17:03;;;;;;;2.60;2.20;;;22.60;69.00;;;;;;222382;1258;24240;-57
2023/10/26 15:22:08;;;;;;;9.60;1.80;;;22.60;68.60;;;;;;222241;1270;22521;-60
2023/10/26 15:27:13;;;;;;;8.10;2.30;;;22.70;68.80;;;;;;221561;1262;22527;-52
2023/10/26 15:32:29;;;;;;;4.30;2.50;;;22.60;69.40;;;;;;224507;1265;25888;-55
2023/10/26 15:37:42;;;;;;;6.70;2.70;;;23.00;69.40;;;;;;222646;1258;23027;-55
2023/10/26 15:42:51;;;;;;;7.30;2.50;;;23.00;72.00;;;;;;221944;1256;22518;-56
2023/10/26 15:48:01;;;;;;;3.80;2.40;;;22.90;71.80;;;;;;221821;1267;25347;-58
2023/10/26 15:53:18;;;;;;;7.60;2.90;;;22.90;70.40;;;;;;221960;1262;22606;-57
2023/10/26 15:58:28;;;;;;;7.40;2.70;;;23.00;69.40;;;;;;222041;1265;22595;-54
2023/10/26 16:03:46;;;;;;;4.10;1.90;;;22.80;70.10;;;;;;222108;1256;22629;-54
2023/10/26 16:08:50;;;;;;;3.00;2.20;;;22.70;70.60;;;;;;223425;1262;22525;-56
2023/10/26 16:13:54;;;;;;;3.60;2.10;;;22.80;69.70;;;;;;222182;1262;22695;-56
2023/10/26 16:18:59;;;;;;;7.60;2.70;;;22.80;72.10;;;;;;221906;1256;22651;-56
2023/10/26 16:24:03;;;;;;;6.40;2.40;;;22.90;73.20;;;;;;222266;1262;22523;-61
2023/10/26 16:29:07;;;;;;;9.30;2.30;;;23.00;73.50;;;;;;222198;1265;22527;-58
2023/10/26 16:34:12;;;;;;;5.50;2.50;;;23.00;73.60;;;;;;222133;1265;22511;-57
2023/10/26 16:39:17;;;;;;;4.90;1.80;;;22.80;74.70;;;;;;222217;1265;24213;-57
2023/10/26 16:44:22;;;;;;;4.40;2.80;;;22.90;74.10;;;;;;221933;1268;22517;-57
2023/10/26 16:49:28;;;;;;;5.10;2.00;;;22.80;74.30;;;;;;222291;1267;25497;-56
2023/10/26 16:54:32;;;;;;;4.90;2.10;;;22.80;74.50;;;;;;224841;1270;23774;-58
2023/10/26 16:59:38;;;;;;;10.50;2.60;;;22.90;74.40;;;;;;224801;1264;24207;-55
2023/10/26 17:04:45;;;;;;;4.20;2.40;;;22.90;74.30;;;;;;224395;1265;25216;-53
2023/10/26 17:09:49;;;;;;;5.90;1.90;;;23.00;74.40;;;;;;225593;1247;25940;-53
2023/10/26 17:14:55;;;;;;;9.30;2.30;;;22.90;74.40;;;;;;223559;1270;24291;-55
2023/10/26 17:20:00;;;;;;;8.40;2.50;;;22.90;73.70;;;;;;223144;1266;22737;-57
2023/10/26 17:25:07;;;;;;;5.30;2.10;;;22.80;73.90;;;;;;223365;1262;22734;-52
2023/10/26 17:30:12;;;;;;;8.70;3.10;;;23.00;75.10;;;;;;223739;1262;22567;-52
2023/10/26 17:35:19;;;;;;;7.80;2.30;;;23.00;74.80;;;;;;224864;1265;23149;-50
2023/10/26 17:40:25;;;;;;;8.60;2.40;;;23.00;75.20;;;;;;224349;1261;22702;-51
2023/10/26 17:45:32;;;;;;;8.40;2.60;;;23.10;74.50;;;;;;224297;1265;22771;-53
2023/10/26 17:50:41;;;;;;;5.80;3.10;;;23.00;73.80;;;;;;228021;1267;23007;-58
2023/10/26 17:55:59;;;;;;;6.30;2.60;;;23.00;73.80;;;;;;228830;1262;22520;-55
2023/10/26 18:01:09;;;;;;;20.30;4.50;;;23.10;73.30;;;;;;228487;1264;22883;-53
2023/10/26 18:06:22;;;;;;;8.40;2.90;;;23.10;72.50;;;;;;228843;1266;23575;-58
2023/10/26 18:11:29;;;;;;;11.30;3.30;;;23.20;72.80;;;;;;228787;1258;22552;-57
2023/10/26 18:16:36;;;;;;;8.00;2.30;;;23.40;71.70;;;;;;228993;1270;22553;-52
2023/10/26 18:21:48;;;;;;;15.00;4.70;;;23.40;71.30;;;;;;229039;1259;22541;-55
2023/10/26 18:26:56;;;;;;;7.50;2.60;;;23.50;71.10;;;;;;228489;1265;22466;-55
2023/10/26 18:32:08;;;;;;;9.30;3.40;;;23.40;70.80;;;;;;228980;1262;22542;-56
2023/10/26 18:37:24;;;;;;;13.20;3.50;;;23.50;70.60;;;;;;228712;1267;22583;-52
2023/10/26 18:42:29;;;;;;;10.00;3.30;;;23.50;70.60;;;;;;228302;1265;22606;-58
2023/10/26 18:47:36;;;;;;;15.00;3.80;;;23.50;70.40;;;;;;223737;1270;22718;-59
2023/10/26 18:52:41;;;;;;;13.00;3.10;;;23.50;70.80;;;;;;222115;1265;22636;-59
2023/10/26 18:57:47;;;;;;;10.00;3.30;;;23.30;71.90;;;;;;221961;1270;25456;-61
2023/10/26 19:02:54;;;;;;;11.40;3.40;;;23.20;72.10;;;;;;222058;1258;22642;-60
2023/10/26 19:08:04;;;;;;;12.80;4.00;;;23.10;72.30;;;;;;222130;1265;22562;-59
2023/10/26 19:13:12;;;;;;;13.00;4.70;;;23.10;72.20;;;;;;222149;1268;23017;-57
2023/10/26 19:18:18;;;;;;;19.70;6.20;;;23.10;71.80;;;;;;222086;1268;23884;-60
2023/10/26 19:23:25;;;;;;;22.80;6.50;;;23.20;73.70;;;;;;222444;1268;24224;-60
2023/10/26 19:28:37;;;;;;;20.10;5.50;;;23.30;74.40;;;;;;222562;1267;26076;-60
2023/10/26 19:33:46;;;;;;;17.60;5.50;;;23.20;73.60;;;;;;221505;1270;25799;-61
2023/10/26 19:38:54;;;;;;;14.30;5.10;;;23.10;73.30;;;;;;221572;1273;22517;-60
2023/10/26 19:44:03;;;;;;;19.50;5.30;;;23.10;73.20;;;;;;221853;1270;22530;-58
2023/10/26 19:49:10;;;;;;;25.70;5.80;;;23.00;73.10;;;;;;221811;1268;23855;-59
2023/10/26 19:54:18;;;;;;;18.70;5.40;;;22.90;73.30;;;;;;221634;1265;24349;-60
2023/10/26 19:59:30;;;;;;;15.40;5.70;;;23.00;72.50;;;;;;221596;1270;24029;-58
2023/10/26 20:04:37;;;;;;;15.20;5.20;;;23.00;72.00;;;;;;221627;1266;22543;-59
2023/10/26 20:09:43;;;;;;;19.90;5.10;;;23.00;72.00;;;;;;222124;1264;25361;-59
2023/10/26 20:14:50;;;;;;;17.80;5.90;;;22.90;73.10;;;;;;221783;1267;276902;-62
2023/10/26 20:19:58;;;;;;;14.10;5.30;;;22.70;72.80;;;;;;222251;1268;22654;-59
2023/10/26 20:25:04;;;;;;;10.30;4.70;;;22.60;73.00;;;;;;222077;1247;23896;-59
2023/10/26 20:30:12;;;;;;;11.70;4.40;;;22.50;72.70;;;;;;222260;1268;22529;-60
2023/10/26 20:35:17;;;;;;;16.60;5.20;;;22.70;72.70;;;;;;222509;1268;22628;-60
2023/10/26 20:40:26;;;;;;;11.50;5.30;;;22.70;72.70;;;;;;222132;1264;22521;-61
2023/10/26 20:45:31;;;;;;;8.40;4.60;;;22.80;71.60;;;;;;222447;1268;22544;-60
2023/10/26 20:50:38;;;;;;;15.70;5.00;;;22.80;71.20;;;;;;222086;1263;24378;-56
2023/10/26 20:55:42;;;;;;;14.80;5.30;;;22.70;70.90;;;;;;222115;1252;22611;-56
2023/10/26 21:00:46;;;;;;;11.30;4.50;;;22.70;70.70;;;;;;222380;1270;25467;-54
2023/10/26 21:05:51;;;;;;;11.70;5.20;;;22.80;70.50;;;;;;222122;1265;24243;-56
2023/10/26 21:10:56;;;;;;;11.70;4.90;;;22.80;70.20;;;;;;222231;1262;24231;-57
2023/10/26 21:16:01;;;;;;;13.30;5.10;;;22.60;70.40;;;;;;222302;1262;22520;-56
2023/10/26 21:21:12;;;;;;;9.70;4.30;;;22.50;70.80;;;;;;222044;1268;22654;-58
2023/10/26 21:26:17;;;;;;;17.80;6.10;;;22.50;70.40;;;;;;222109;1270;22532;-57
2023/10/26 21:31:23;;;;;;;12.70;5.50;;;22.60;74.20;;;;;;222064;1270;22511;-57
2023/10/26 21:36:36;;;;;;;13.30;4.50;;;22.60;73.30;;;;;;222324;1268;25505;-57
2023/10/26 21:41:50;;;;;;;16.50;4.70;;;22.50;73.20;;;;;;222288;1259;22537;-55
2023/10/26 21:47:02;;;;;;;9.50;4.30;;;22.50;72.60;;;;;;222415;1254;22525;-55
2023/10/26 21:52:14;;;;;;;7.80;4.30;;;22.40;72.70;;;;;;222311;1269;22595;-57
2023/10/26 21:57:25;;;;;;;7.40;4.50;;;22.50;72.80;;;;;;222012;1265;26494;-55
2023/10/26 22:02:35;;;;;;;9.90;4.30;;;22.80;71.60;;;;;;222505;1262;22536;-55
2023/10/26 22:07:45;;;;;;;7.50;4.40;;;23.10;70.50;;;;;;222284;1268;25318;-56
2023/10/26 22:12:55;;;;;;;8.30;4.40;;;23.20;70.00;;;;;;221935;1265;25306;-56
2023/10/26 22:18:05;;;;;;;8.30;4.10;;;23.20;69.90;;;;;;222371;1270;22525;-56
2023/10/26 22:23:16;;;;;;;11.20;5.10;;;23.40;69.70;;;;;;222278;1259;25252;-56
2023/10/26 22:28:29;;;;;;;7.00;3.60;;;23.50;69.20;;;;;;222128;1261;22596;-56
2023/10/26 22:33:40;;;;;;;9.50;4.30;;;23.60;69.10;;;;;;222506;1257;25276;-56
2023/10/26 22:38:48;;;;;;;10.10;4.30;;;23.70;70.30;;;;;;222259;1269;22517;-56
2023/10/26 22:43:55;;;;;;;10.00;3.90;;;23.70;70.60;;;;;;222231;1269;24464;-57
2023/10/26 22:49:02;;;;;;;6.90;3.70;;;23.60;71.20;;;;;;222554;1265;25231;-59
2023/10/26 22:54:07;;;;;;;7.10;3.90;;;23.60;71.20;;;;;;222121;1270;22741;-57
2023/10/26 22:59:12;;;;;;;9.00;4.30;;;23.60;71.40;;;;;;221691;1270;22515;-58
2023/10/26 23:04:17;;;;;;;6.00;4.10;;;23.60;70.90;;;;;;222173;1263;22498;-60
2023/10/26 23:09:22;;;;;;;7.90;3.80;;;23.60;71.30;;;;;;222000;1268;22515;-58
2023/10/26 23:14:26;;;;;;;10.00;3.90;;;23.50;71.00;;;;;;222014;1263;22528;-57
2023/10/26 23:19:30;;;;;;;5.10;3.50;;;23.60;71.10;;;;;;221909;1249;24229;-58
2023/10/26 23:24:36;;;;;;;7.80;3.50;;;23.50;71.10;;;;;;221936;1270;23283;-57
2023/10/26 23:29:40;;;;;;;7.00;4.00;;;23.50;71.20;;;;;;221881;1263;24188;-57
2023/10/26 23:34:44;;;;;;;6.60;3.50;;;23.50;70.80;;;;;;221868;1270;22990;-58
2023/10/26 23:39:49;;;;;;;8.60;4.10;;;23.40;70.90;;;;;;222027;1268;24176;-56
2023/10/26 23:44:53;;;;;;;5.80;3.40;;;23.30;71.20;;;;;;222063;1254;24232;-55
2023/10/26 23:49:58;;;;;;;6.30;4.00;;;23.20;71.40;;;;;;221939;1247;25430;-58
2023/10/26 23:55:03;;;;;;;7.30;3.40;;;23.10;71.00;;;;;;222009;1268;22668;-57
